createdAt,value
2018-06-29T00:04:40.097Z,1.91
2018-06-29T00:10:35.079Z,1.42
2018-06-29T00:16:30.209Z,2.49
2018-06-29T00:22:25.120Z,2.59
2018-06-29T00:28:20.159Z,3.33
2018-06-29T00:34:15.131Z,2.31
2018-06-29T00:40:10.083Z,4.05
2018-06-29T00:46:05.143Z,3.16
2018-06-29T00:52:00.090Z,1.92
2018-06-29T00:57:55.093Z,1.54
2018-06-29T01:03:50.074Z,1.51
2018-06-29T01:09:45.180Z,2.41
2018-06-29T01:15:40.058Z,4.14
2018-06-29T01:21:35.272Z,1.57
2018-06-29T01:27:30.123Z,1.2
2018-06-29T01:33:25.100Z,1.81
2018-06-29T02:03:00.101Z,2.32
2018-06-29T02:03:00.336Z,1.54
2018-06-29T02:03:00.341Z,1.54
2018-06-29T02:03:00.349Z,1.54
2018-06-29T02:08:55.086Z,3.2
2018-06-29T02:14:50.140Z,1.54
2018-06-29T02:20:45.237Z,2.22
2018-06-29T02:26:40.099Z,2.22
2018-06-29T02:32:35.161Z,1.7
2018-06-29T02:38:30.110Z,4.61
2018-06-29T02:44:25.145Z,2.07
2018-06-29T02:50:20.109Z,1.28
2018-06-29T02:56:15.081Z,2.09
2018-06-29T03:02:10.111Z,2.06
2018-06-29T03:08:05.131Z,1.27
2018-06-29T03:14:00.178Z,1.83
2018-06-29T03:19:55.118Z,1.4
2018-06-29T03:25:50.175Z,1.81
2018-06-29T03:31:45.091Z,1.96
2018-06-29T03:37:40.127Z,1.84
2018-06-29T03:43:35.137Z,2.55
2018-06-29T03:49:30.142Z,1.45
2018-06-29T03:55:25.202Z,3.62
2018-06-29T04:01:20.148Z,1.87
2018-06-29T04:07:15.129Z,1.5
2018-06-29T04:13:10.140Z,1.42
2018-06-29T04:19:05.134Z,6.53
2018-06-29T04:25:00.135Z,4.57
2018-06-29T04:30:55.148Z,1.59
2018-06-29T04:36:50.127Z,3.49
2018-06-29T05:00:30.112Z,1.45
2018-06-29T05:00:30.279Z,2.87
2018-06-29T05:00:30.388Z,2.87
2018-06-29T05:00:30.391Z,2.87
2018-06-29T05:06:25.117Z,1.13
2018-06-29T05:12:20.111Z,1.52
2018-06-29T05:18:15.130Z,2.83
2018-06-29T05:24:10.124Z,4.68
2018-06-29T05:30:05.418Z,2.7
2018-06-29T05:36:00.127Z,2.74
2018-06-29T05:41:55.137Z,3.72
2018-06-29T05:47:50.160Z,3.26
2018-06-29T05:53:45.170Z,4.07
2018-06-29T05:59:40.194Z,4.77
2018-06-29T06:05:35.145Z,4.43
2018-06-29T06:11:30.164Z,8.3
2018-06-29T06:17:25.293Z,6.09
2018-06-29T06:23:20.112Z,5.8
2018-06-29T06:29:15.156Z,6.82
2018-06-29T06:35:10.152Z,9.53
2018-06-29T06:41:05.238Z,7.34
2018-06-29T06:47:00.282Z,10.7
2018-06-29T06:52:55.144Z,7.22
2018-06-29T06:58:50.224Z,7.69
2018-06-29T07:04:45.130Z,4.5
2018-06-29T07:10:40.157Z,7.07
2018-06-29T07:16:35.126Z,8.69
2018-06-29T07:22:30.143Z,6.11
2018-06-29T07:28:25.151Z,6.48
2018-06-29T07:34:20.159Z,7.35
2018-06-29T08:03:55.312Z,10.1
2018-06-29T08:03:55.408Z,6.55
2018-06-29T08:03:55.479Z,6.55
2018-06-29T08:03:55.493Z,6.55
2018-06-29T08:09:50.222Z,9.83
2018-06-29T08:15:45.171Z,8.36
2018-06-29T08:21:40.186Z,5.69
2018-06-29T08:27:35.196Z,8.08
2018-06-29T08:33:30.216Z,7.65
2018-06-29T08:39:25.183Z,8.36
2018-06-29T08:45:20.160Z,4.63
2018-06-29T08:51:15.219Z,4.91
2018-06-29T08:57:10.192Z,4.35
2018-06-29T09:03:05.194Z,1.83
2018-06-29T09:09:00.259Z,2.39
2018-06-29T09:14:55.234Z,3.27
2018-06-29T09:20:50.216Z,6.07
2018-06-29T09:26:45.220Z,4.29
2018-06-29T09:32:40.186Z,4.34
2018-06-29T09:38:35.240Z,4.11
2018-06-29T09:44:30.183Z,3.89
2018-06-29T09:50:25.298Z,4.53
2018-06-29T09:56:20.299Z,3.22
2018-06-29T10:02:15.229Z,3.06
2018-06-29T10:08:10.189Z,3.22
2018-06-29T10:14:05.265Z,3.38
2018-06-29T10:20:00.300Z,3.69
2018-06-29T10:25:55.242Z,2.78
2018-06-29T10:31:50.242Z,2.84
2018-06-29T10:37:45.232Z,2.24
2018-06-29T11:01:25.244Z,1.63
2018-06-29T11:01:25.282Z,4
2018-06-29T11:01:25.304Z,4
2018-06-29T11:01:25.359Z,4
2018-06-29T11:07:20.336Z,6.56
2018-06-29T11:13:15.222Z,2.52
2018-06-29T11:19:10.281Z,2.93
2018-06-29T11:25:05.257Z,2.86
2018-06-29T11:31:00.230Z,1.21
2018-06-29T11:36:55.245Z,2.33
2018-06-29T11:42:50.335Z,2.03
2018-06-29T11:48:45.354Z,2.42
2018-06-29T11:54:40.232Z,7.2
2018-06-29T12:00:35.343Z,3.34
2018-06-29T12:06:30.319Z,3.24
2018-06-29T12:12:25.294Z,3.66
2018-06-29T12:18:20.258Z,2.33
2018-06-29T12:24:15.245Z,2.2
2018-06-29T12:30:10.314Z,1.74
2018-06-29T12:36:05.317Z,2.32
2018-06-29T12:42:00.276Z,1.82
2018-06-29T12:47:55.268Z,1.95
2018-06-29T12:53:50.324Z,3.06
2018-06-29T12:59:45.357Z,2.11
2018-06-29T13:05:40.303Z,2.67
2018-06-29T13:11:35.303Z,2.7
2018-06-29T13:17:30.302Z,2.27
2018-06-29T13:23:25.280Z,1.89
2018-06-29T13:29:20.360Z,2.47
2018-06-29T13:35:15.348Z,4.02
2018-06-29T14:04:50.327Z,1.87
2018-06-29T14:04:50.354Z,3.33
2018-06-29T14:04:50.379Z,3.33
2018-06-29T14:04:50.433Z,3.33
2018-06-29T14:10:45.373Z,2.53
2018-06-29T14:16:40.414Z,3.91
2018-06-29T14:22:35.387Z,2.89
2018-06-29T14:28:30.377Z,3.19
2018-06-29T14:34:25.370Z,2
2018-06-29T14:40:20.354Z,2.63
2018-06-29T14:46:15.322Z,3.92
2018-06-29T14:52:10.339Z,3.55
2018-06-29T14:58:05.306Z,2.72
2018-06-29T15:04:00.320Z,3.02
2018-06-29T15:09:55.392Z,3.01
2018-06-29T15:15:50.459Z,3.98
2018-06-29T15:21:45.499Z,4.72
2018-06-29T15:27:40.389Z,3.31
2018-06-29T15:33:35.390Z,2.36
2018-06-29T15:39:30.374Z,2.96
2018-06-29T15:45:25.507Z,2.69
2018-06-29T15:51:20.404Z,3.08
2018-06-29T15:57:15.367Z,1.96
2018-06-29T16:03:10.377Z,7.03
2018-06-29T16:09:05.430Z,2.34
2018-06-29T16:15:00.401Z,2.46
2018-06-29T16:20:55.376Z,2.39
2018-06-29T16:26:50.357Z,4.06
2018-06-29T16:32:45.393Z,3
2018-06-29T16:38:40.389Z,6.21
2018-06-29T17:02:20.366Z,3.66
2018-06-29T17:02:20.512Z,3.97
2018-06-29T17:02:20.528Z,3.97
2018-06-29T17:02:20.552Z,3.97
2018-06-29T17:08:15.381Z,3.55
2018-06-29T17:14:10.410Z,3.85
2018-06-29T17:20:05.487Z,2.88
2018-06-29T17:26:00.417Z,2.72
2018-06-29T17:31:55.376Z,3.58
2018-06-29T17:37:50.455Z,4.38
2018-06-29T17:43:45.507Z,6.83
2018-06-29T17:49:40.408Z,2.96
2018-06-29T17:55:35.456Z,2.7
2018-06-29T18:01:30.403Z,3.75
2018-06-29T18:07:25.410Z,2.84
2018-06-29T18:13:20.502Z,3.52
2018-06-29T18:19:15.440Z,10.13
2018-06-29T18:25:10.476Z,3.14
2018-06-29T18:31:05.399Z,7.25
2018-06-29T18:37:00.437Z,4.44
2018-06-29T18:42:55.413Z,5.01
2018-06-29T18:48:50.424Z,3.62
2018-06-29T18:54:45.434Z,6.85
2018-06-29T19:00:40.450Z,4.91
2018-06-29T19:06:35.475Z,4.64
2018-06-29T19:12:30.464Z,6.04
2018-06-29T19:18:25.468Z,3.94
2018-06-29T19:24:20.454Z,4.59
2018-06-29T19:30:15.465Z,5.45
2018-06-29T19:36:10.453Z,4.63
2018-06-29T20:05:45.507Z,4.41
2018-06-29T20:05:45.598Z,5.68
2018-06-29T20:05:45.625Z,5.68
2018-06-29T20:05:45.654Z,5.68
2018-06-29T20:11:40.488Z,3.86
2018-06-29T20:17:35.475Z,5.2
2018-06-29T20:23:30.460Z,5.96
2018-06-29T20:29:25.471Z,6.24
2018-06-29T20:35:20.505Z,8.4
2018-06-29T20:41:15.487Z,8.17
2018-06-29T20:47:10.519Z,5.49
2018-06-29T20:53:05.488Z,9.35
2018-06-29T20:59:00.472Z,8.19
2018-06-29T21:04:55.689Z,5.02
2018-06-29T21:10:50.502Z,5.16
2018-06-29T21:16:45.488Z,5.02
2018-06-29T21:22:40.485Z,3.9
2018-06-29T21:28:35.463Z,3.49
2018-06-29T21:34:30.500Z,5.12
2018-06-29T21:40:25.559Z,4.9
2018-06-29T21:46:20.508Z,5.82
2018-06-29T21:52:15.503Z,6.37
2018-06-29T21:58:10.522Z,4.99
2018-06-29T22:04:05.566Z,5.56
2018-06-29T22:10:00.529Z,6.28
2018-06-29T22:15:55.514Z,3.35
2018-06-29T22:21:50.526Z,4.54
2018-06-29T22:27:45.497Z,7.57
2018-06-29T22:33:40.549Z,7.36
2018-06-29T22:39:35.498Z,5.47
2018-06-29T23:03:15.541Z,4.66
2018-06-29T23:03:15.722Z,8.62
2018-06-29T23:03:15.750Z,8.62
2018-06-29T23:03:15.825Z,8.62
2018-06-29T23:09:10.565Z,6.8
2018-06-29T23:15:05.570Z,6.76
2018-06-29T23:21:00.571Z,5.23
2018-06-29T23:26:55.540Z,6.35
2018-06-29T23:32:50.587Z,4.41
2018-06-29T23:38:45.652Z,5.76
2018-06-29T23:44:40.560Z,6.25
2018-06-29T23:50:35.555Z,5.68
2018-06-29T23:56:30.616Z,8.38
